createdAt,value
2023-03-21T00:04:28.376Z,39.60
2023-03-21T00:09:34.281Z,25.90
2023-03-21T00:14:43.427Z,33.80
2023-03-21T00:19:46.344Z,28.60
2023-03-21T00:24:48.337Z,30.10
2023-03-21T00:29:50.323Z,31.80
2023-03-21T00:35:21.444Z,28.30
2023-03-21T00:40:25.699Z,31.60
2023-03-21T00:45:31.923Z,30.80
2023-03-21T00:50:39.264Z,35.00
2023-03-21T00:55:42.434Z,33.80
2023-03-21T01:00:47.071Z,26.00
2023-03-21T01:06:04.505Z,36.30
2023-03-21T01:11:10.417Z,40.70
2023-03-21T01:16:12.471Z,39.10
2023-03-21T01:21:14.626Z,39.60
2023-03-21T01:26:16.446Z,36.50
2023-03-21T01:31:19.397Z,39.00
2023-03-21T01:36:25.460Z,37.30
2023-03-21T01:41:43.292Z,40.30
2023-03-21T01:47:13.411Z,37.20
2023-03-21T01:52:36.438Z,43.90
2023-03-21T01:57:58.444Z,36.80
2023-03-21T02:03:16.891Z,31.00
2023-03-21T02:08:39.231Z,36.50
2023-03-21T02:19:17.708Z,43.20
2023-03-21T02:25:01.251Z,34.80
2023-03-21T02:30:50.967Z,33.10
2023-03-21T02:36:14.501Z,23.20
2023-03-21T02:41:38.269Z,35.60
2023-03-21T02:47:06.006Z,35.60
2023-03-21T02:52:28.323Z,35.60
2023-03-21T02:57:42.230Z,29.80
2023-03-21T03:02:45.560Z,21.70
2023-03-21T03:08:11.506Z,36.20
2023-03-21T03:13:43.935Z,36.40
2023-03-21T03:18:55.525Z,37.70
2023-03-21T03:24:10.449Z,37.50
2023-03-21T03:29:18.387Z,23.00
2023-03-21T03:34:24.426Z,40.10
2023-03-21T03:39:38.130Z,34.90
2023-03-21T03:44:40.446Z,35.30
2023-03-21T03:49:48.531Z,28.80
2023-03-21T03:54:52.217Z,22.60
2023-03-21T03:59:55.450Z,19.40
2023-03-21T04:05:01.236Z,27.10
2023-03-21T04:10:05.025Z,22.20
2023-03-21T04:15:12.847Z,23.70
2023-03-21T04:20:26.726Z,24.70
2023-03-21T04:25:44.584Z,29.20
2023-03-21T04:31:01.205Z,26.60
2023-03-21T04:36:24.765Z,25.20
2023-03-21T04:41:28.775Z,19.60
2023-03-21T04:46:31.981Z,27.40
2023-03-21T04:51:34.656Z,30.80
2023-03-21T04:56:36.673Z,32.60
2023-03-21T05:01:38.443Z,25.70
2023-03-21T05:06:42.607Z,32.30
2023-03-21T05:11:44.530Z,33.30
2023-03-21T05:16:53.307Z,39.10
2023-03-21T05:21:55.400Z,39.90
2023-03-21T05:27:02.457Z,33.90
2023-03-21T05:32:06.118Z,29.40
2023-03-21T05:37:08.103Z,40.10
2023-03-21T05:42:18.537Z,41.30
2023-03-21T05:47:20.876Z,29.30
2023-03-21T05:52:23.126Z,31.40
2023-03-21T05:57:27.917Z,37.20
2023-03-21T06:02:39.928Z,38.80
2023-03-21T06:07:42.950Z,32.20
2023-03-21T06:12:45.753Z,29.00
2023-03-21T06:18:00.789Z,31.30
2023-03-21T06:23:03.375Z,35.90
2023-03-21T06:28:05.646Z,38.30
2023-03-21T06:33:08.798Z,36.00
2023-03-21T06:38:11.877Z,34.00
2023-03-21T06:43:16.151Z,34.70
2023-03-21T06:48:18.150Z,40.80
2023-03-21T06:53:27.312Z,26.00
2023-03-21T06:58:47.546Z,34.90
2023-03-21T07:03:59.585Z,38.50
2023-03-21T07:09:03.150Z,37.30
2023-03-21T07:14:06.927Z,30.00
2023-03-21T07:19:09.085Z,30.60
2023-03-21T07:24:10.859Z,21.60
2023-03-21T07:29:12.596Z,27.00
2023-03-21T07:34:16.725Z,27.00
2023-03-21T07:39:20.522Z,29.20
2023-03-21T07:44:23.291Z,30.60
2023-03-21T07:49:29.206Z,24.20
2023-03-21T07:54:32.054Z,27.00
2023-03-21T07:59:34.632Z,31.40
2023-03-21T08:04:36.471Z,33.60
2023-03-21T08:09:38.320Z,27.80
2023-03-21T08:14:40.087Z,32.40
2023-03-21T08:19:41.866Z,32.70
2023-03-21T08:24:43.582Z,35.10
2023-03-21T08:29:45.389Z,36.50
2023-03-21T08:34:47.045Z,31.40
2023-03-21T08:39:48.776Z,36.40
2023-03-21T08:44:50.979Z,30.80
2023-03-21T08:49:52.767Z,37.70
2023-03-21T08:54:55.254Z,34.30
2023-03-21T08:59:57.071Z,41.90
2023-03-21T09:04:59.166Z,37.60
2023-03-21T09:10:19.690Z,39.30
2023-03-21T09:15:25.526Z,40.50
2023-03-21T09:20:31.224Z,40.70
2023-03-21T09:25:33.577Z,36.30
2023-03-21T09:30:36.804Z,40.40
2023-03-21T09:35:39.279Z,35.90
2023-03-21T09:41:08.921Z,39.80
2023-03-21T09:46:24.154Z,34.90
2023-03-21T09:51:31.306Z,45.70
2023-03-21T09:56:34.646Z,39.80
2023-03-21T10:01:42.034Z,37.60
2023-03-21T10:06:46.720Z,39.50
2023-03-21T10:11:57.528Z,40.80
2023-03-21T10:17:25.859Z,40.10
2023-03-21T10:22:27.748Z,46.90
2023-03-21T10:27:29.876Z,47.00
2023-03-21T10:32:31.942Z,38.90
2023-03-21T10:37:36.277Z,28.30
2023-03-21T10:42:37.995Z,41.50
2023-03-21T10:47:39.937Z,31.00
2023-03-21T10:52:55.952Z,40.00
2023-03-21T10:58:10.912Z,35.20
2023-03-21T11:03:29.340Z,32.80
2023-03-21T11:08:37.570Z,35.90
2023-03-21T11:13:42.844Z,35.90
2023-03-21T11:18:50.650Z,35.60
2023-03-21T11:23:57.359Z,31.90
2023-03-21T11:28:59.693Z,37.40
2023-03-21T11:34:07.333Z,38.50
2023-03-21T11:39:09.008Z,35.60
2023-03-21T11:44:29.310Z,35.50
2023-03-21T11:54:51.830Z,36.40
2023-03-21T12:00:14.365Z,30.20
2023-03-21T12:05:26.554Z,32.90
2023-03-21T12:10:46.572Z,36.20
2023-03-21T12:15:57.691Z,32.50
2023-03-21T12:21:22.333Z,33.60
2023-03-21T12:26:32.405Z,35.40
2023-03-21T12:31:43.727Z,33.40
2023-03-21T12:36:57.760Z,30.80
2023-03-21T12:42:05.612Z,27.50
2023-03-21T12:47:13.673Z,18.70
2023-03-21T12:52:22.533Z,24.30
2023-03-21T12:57:57.112Z,24.40
2023-03-21T13:03:04.164Z,29.40
2023-03-21T13:08:22.200Z,28.80
2023-03-21T13:13:45.772Z,25.40
2023-03-21T13:19:11.069Z,23.30
2023-03-21T13:24:27.289Z,30.30
2023-03-21T13:29:33.500Z,24.90
2023-03-21T13:34:38.606Z,22.30
2023-03-21T13:39:45.419Z,28.00
2023-03-21T13:44:53.115Z,22.30
2023-03-21T13:50:23.631Z,20.60
2023-03-21T13:55:28.623Z,31.20
2023-03-21T14:00:31.224Z,24.80
2023-03-21T14:05:35.285Z,24.60
2023-03-21T14:10:44.780Z,19.00
2023-03-21T14:15:56.087Z,20.20
2023-03-21T14:20:59.585Z,22.10
2023-03-21T14:26:01.499Z,20.50
2023-03-21T14:36:16.666Z,26.00
2023-03-21T14:41:22.821Z,24.40
2023-03-21T14:46:24.672Z,18.40
2023-03-21T14:56:28.931Z,21.70
2023-03-21T15:01:34.803Z,22.30
2023-03-21T15:06:59.065Z,21.50
2023-03-21T15:12:01.816Z,26.00
2023-03-21T15:17:06.057Z,38.10
2023-03-21T15:22:34.590Z,23.00
2023-03-21T15:27:40.936Z,30.20
2023-03-21T15:32:42.672Z,30.00
2023-03-21T15:37:53.911Z,26.60
2023-03-21T15:43:07.453Z,26.00
2023-03-21T15:48:12.775Z,29.90
2023-03-21T15:53:17.703Z,31.80
2023-03-21T15:58:25.795Z,33.90
2023-03-21T16:03:32.233Z,36.20
2023-03-21T16:08:36.436Z,38.20
2023-03-21T16:13:38.117Z,42.50
2023-03-21T16:18:39.769Z,40.00
2023-03-21T16:23:42.054Z,29.90
2023-03-21T16:28:44.835Z,42.20
2023-03-21T16:33:47.405Z,37.40
2023-03-21T16:38:52.683Z,48.80
2023-03-21T16:43:54.802Z,51.40
2023-03-21T16:54:00.380Z,52.00
2023-03-21T16:59:02.059Z,53.90
2023-03-21T17:04:04.062Z,49.40
2023-03-21T17:09:06.779Z,61.90
2023-03-21T17:14:10.695Z,63.40
2023-03-21T17:19:24.037Z,73.10
2023-03-21T17:24:26.420Z,258.30
2023-03-21T17:29:28.353Z,78.00
2023-03-21T17:34:31.224Z,57.90
2023-03-21T17:39:33.115Z,62.40
2023-03-21T17:44:34.734Z,59.70
2023-03-21T17:49:36.584Z,66.60
2023-03-21T17:54:38.351Z,50.20
2023-03-21T17:59:40.071Z,56.10
2023-03-21T18:04:41.791Z,46.30
2023-03-21T18:09:43.637Z,39.70
2023-03-21T18:14:45.704Z,44.70
2023-03-21T18:24:49.537Z,63.10
2023-03-21T18:30:25.957Z,53.70
2023-03-21T18:35:17.216Z,46.60
2023-03-21T18:40:22.094Z,39.70
2023-03-21T18:45:25.179Z,52.30
2023-03-21T18:50:27.439Z,45.00
2023-03-21T18:55:44.758Z,45.30
2023-03-21T19:00:47.612Z,54.90
2023-03-21T19:05:49.360Z,37.30
2023-03-21T19:10:51.469Z,50.80
2023-03-21T19:20:58.600Z,57.30
2023-03-21T19:26:00.911Z,43.30
2023-03-21T19:31:04.499Z,42.00
2023-03-21T19:36:18.063Z,45.00
2023-03-21T19:41:23.401Z,45.10
2023-03-21T19:46:26.398Z,48.80
2023-03-21T19:51:30.038Z,48.30
2023-03-21T19:56:34.592Z,42.20
2023-03-21T20:01:36.742Z,38.70
2023-03-21T20:06:38.694Z,43.60
2023-03-21T20:11:40.381Z,46.60
2023-03-21T20:16:43.720Z,48.20
2023-03-21T20:21:52.238Z,109.80
2023-03-21T20:26:57.342Z,140.30
2023-03-21T20:31:59.638Z,144.40
2023-03-21T20:42:05.777Z,132.90
2023-03-21T20:47:08.282Z,136.20
2023-03-21T20:57:32.604Z,210.40
2023-03-21T21:02:34.700Z,179.30
2023-03-21T21:07:36.355Z,178.80
2023-03-21T21:12:40.213Z,207.30
2023-03-21T21:23:05.007Z,250.00
2023-03-21T21:28:09.627Z,265.20
2023-03-21T21:33:14.546Z,237.50
2023-03-21T21:38:19.179Z,227.50
2023-03-21T21:43:21.147Z,223.90
2023-03-21T21:48:23.384Z,179.00
2023-03-21T21:53:28.323Z,180.30
2023-03-21T21:58:33.828Z,176.70
2023-03-21T22:03:41.172Z,130.30
2023-03-21T22:08:46.876Z,121.10
2023-03-21T22:13:53.147Z,117.40
2023-03-21T22:18:54.818Z,160.60
2023-03-21T22:23:56.626Z,165.80
2023-03-21T22:28:59.900Z,159.80
2023-03-21T22:34:01.536Z,137.70
2023-03-21T22:39:03.388Z,161.70
2023-03-21T22:44:06.297Z,127.10
2023-03-21T22:49:07.981Z,145.50
2023-03-21T22:54:10.995Z,136.90
2023-03-21T22:59:12.671Z,132.60
2023-03-21T23:04:15.590Z,118.90
2023-03-21T23:09:17.688Z,129.20
2023-03-21T23:14:20.885Z,88.60
2023-03-21T23:19:25.469Z,128.40
2023-03-21T23:24:27.309Z,137.00
2023-03-21T23:29:29.024Z,133.60
2023-03-21T23:34:31.593Z,127.70
2023-03-21T23:39:35.016Z,135.60
2023-03-21T23:44:36.721Z,125.10
2023-03-21T23:49:39.019Z,140.30
2023-03-21T23:54:40.943Z,134.00
2023-03-21T23:59:42.669Z,135.80
